sensor_id;sensor_type;location;lat;lon;timestamp;pressure;altitude;pressure_sealevel;temperature;humidity
7660;BME280;3872;47.902;8.162;2023-06-22T00:01:09;92049.88;;;18.38;100.00
7660;BME280;3872;47.902;8.162;2023-06-22T00:03:35;92065.81;;;19.03;100.00
7660;BME280;3872;47.902;8.162;2023-06-22T00:06:02;92055.16;;;19.78;100.00
7660;BME280;3872;47.902;8.162;2023-06-22T00:08:28;92045.00;;;19.52;100.00
7660;BME280;3872;47.902;8.162;2023-06-22T00:10:55;92050.75;;;19.85;100.00
7660;BME280;3872;47.902;8.162;2023-06-22T00:13:28;92044.47;;;19.78;100.00
7660;BME280;3872;47.902;8.162;2023-06-22T00:15:54;92043.13;;;19.40;100.00
7660;BME280;3872;47.902;8.162;2023-06-22T00:18:21;92032.31;;;19.96;100.00
7660;BME280;3872;47.902;8.162;2023-06-22T00:20:47;92047.41;;;18.58;100.00
7660;BME280;3872;47.902;8.162;2023-06-22T00:23:14;92043.34;;;19.04;100.00
7660;BME280;3872;47.902;8.162;2023-06-22T00:25:42;92047.13;;;19.93;100.00
7660;BME280;3872;47.902;8.162;2023-06-22T00:28:09;92045.38;;;20.17;100.00
7660;BME280;3872;47.902;8.162;2023-06-22T00:30:36;92049.03;;;20.28;100.00
7660;BME280;3872;47.902;8.162;2023-06-22T00:33:03;92051.22;;;20.22;100.00
7660;BME280;3872;47.902;8.162;2023-06-22T00:35:33;92050.22;;;19.96;100.00
7660;BME280;3872;47.902;8.162;2023-06-22T00:38:00;92050.91;;;19.77;100.00
7660;BME280;3872;47.902;8.162;2023-06-22T00:40:29;92053.00;;;19.08;100.00
7660;BME280;3872;47.902;8.162;2023-06-22T00:42:57;92061.19;;;19.75;100.00
7660;BME280;3872;47.902;8.162;2023-06-22T00:45:23;92055.97;;;19.98;100.00
7660;BME280;3872;47.902;8.162;2023-06-22T00:47:52;92049.91;;;19.81;100.00
7660;BME280;3872;47.902;8.162;2023-06-22T00:50:20;92056.59;;;19.75;100.00
7660;BME280;3872;47.902;8.162;2023-06-22T00:52:51;92060.09;;;19.32;100.00
7660;BME280;3872;47.902;8.162;2023-06-22T00:55:18;92054.56;;;19.53;100.00
7660;BME280;3872;47.902;8.162;2023-06-22T00:57:45;92057.63;;;19.39;100.00
7660;BME280;3872;47.902;8.162;2023-06-22T01:00:14;92054.91;;;18.80;100.00
7660;BME280;3872;47.902;8.162;2023-06-22T01:02:42;92046.53;;;19.53;100.00
7660;BME280;3872;47.902;8.162;2023-06-22T01:05:12;92054.97;;;19.11;100.00
7660;BME280;3872;47.902;8.162;2023-06-22T01:07:42;92049.59;;;19.39;100.00
7660;BME280;3872;47.902;8.162;2023-06-22T01:10:16;92042.50;;;19.59;100.00
7660;BME280;3872;47.902;8.162;2023-06-22T01:12:49;92040.44;;;19.52;100.00
7660;BME280;3872;47.902;8.162;2023-06-22T01:15:21;92046.63;;;19.57;100.00
7660;BME280;3872;47.902;8.162;2023-06-22T01:17:49;92039.75;;;19.28;100.00
7660;BME280;3872;47.902;8.162;2023-06-22T01:20:20;92042.22;;;19.05;100.00
7660;BME280;3872;47.902;8.162;2023-06-22T01:22:58;92035.97;;;19.13;100.00
7660;BME280;3872;47.902;8.162;2023-06-22T01:25:32;92037.66;;;19.05;100.00
7660;BME280;3872;47.902;8.162;2023-06-22T01:28:07;92038.03;;;19.04;100.00
7660;BME280;3872;47.902;8.162;2023-06-22T01:30:42;92039.59;;;19.21;100.00
7660;BME280;3872;47.902;8.162;2023-06-22T01:33:12;92043.44;;;19.07;100.00
7660;BME280;3872;47.902;8.162;2023-06-22T01:35:40;92049.03;;;18.74;100.00
7660;BME280;3872;47.902;8.162;2023-06-22T01:38:08;92038.97;;;18.56;100.00
7660;BME280;3872;47.902;8.162;2023-06-22T01:40:36;92047.28;;;18.66;100.00
7660;BME280;3872;47.902;8.162;2023-06-22T01:43:03;92045.72;;;18.93;100.00
7660;BME280;3872;47.902;8.162;2023-06-22T01:45:30;92049.78;;;18.35;100.00
7660;BME280;3872;47.902;8.162;2023-06-22T01:47:58;92048.25;;;18.74;100.00
7660;BME280;3872;47.902;8.162;2023-06-22T01:50:27;92040.00;;;18.79;100.00
7660;BME280;3872;47.902;8.162;2023-06-22T01:52:55;92040.75;;;18.52;100.00
7660;BME280;3872;47.902;8.162;2023-06-22T01:55:22;92037.53;;;18.46;100.00
7660;BME280;3872;47.902;8.162;2023-06-22T01:57:48;92032.19;;;18.86;100.00
7660;BME280;3872;47.902;8.162;2023-06-22T02:00:18;92034.53;;;18.60;100.00
7660;BME280;3872;47.902;8.162;2023-06-22T02:02:53;92041.97;;;18.54;100.00
7660;BME280;3872;47.902;8.162;2023-06-22T02:05:25;92037.53;;;18.58;100.00
7660;BME280;3872;47.902;8.162;2023-06-22T02:07:57;92038.66;;;18.45;100.00
7660;BME280;3872;47.902;8.162;2023-06-22T02:10:26;92041.19;;;18.54;100.00
7660;BME280;3872;47.902;8.162;2023-06-22T02:12:57;92034.31;;;18.53;100.00
7660;BME280;3872;47.902;8.162;2023-06-22T02:15:27;92031.16;;;18.75;100.00
7660;BME280;3872;47.902;8.162;2023-06-22T02:17:54;92032.59;;;18.32;100.00
7660;BME280;3872;47.902;8.162;2023-06-22T02:20:21;92029.06;;;18.68;100.00
7660;BME280;3872;47.902;8.162;2023-06-22T02:22:49;92036.97;;;18.53;100.00
7660;BME280;3872;47.902;8.162;2023-06-22T02:25:15;92030.97;;;18.56;100.00
7660;BME280;3872;47.902;8.162;2023-06-22T02:27:44;92028.97;;;18.53;100.00
7660;BME280;3872;47.902;8.162;2023-06-22T02:30:12;92026.56;;;18.35;100.00
7660;BME280;3872;47.902;8.162;2023-06-22T02:32:40;92029.22;;;18.35;100.00
7660;BME280;3872;47.902;8.162;2023-06-22T02:35:07;92019.09;;;17.77;100.00
7660;BME280;3872;47.902;8.162;2023-06-22T02:37:35;92018.88;;;17.94;100.00
7660;BME280;3872;47.902;8.162;2023-06-22T02:40:07;92014.00;;;17.84;100.00
7660;BME280;3872;47.902;8.162;2023-06-22T02:42:34;92013.69;;;17.61;100.00
7660;BME280;3872;47.902;8.162;2023-06-22T02:45:00;92020.88;;;16.91;100.00
7660;BME280;3872;47.902;8.162;2023-06-22T02:47:27;92005.47;;;17.78;100.00
7660;BME280;3872;47.902;8.162;2023-06-22T02:49:53;92003.50;;;17.75;100.00
7660;BME280;3872;47.902;8.162;2023-06-22T02:52:21;92002.56;;;17.59;100.00
7660;BME280;3872;47.902;8.162;2023-06-22T02:54:47;92006.78;;;17.48;100.00
7660;BME280;3872;47.902;8.162;2023-06-22T02:57:15;92005.66;;;17.37;100.00
7660;BME280;3872;47.902;8.162;2023-06-22T02:59:43;92017.09;;;16.59;100.00
7660;BME280;3872;47.902;8.162;2023-06-22T03:02:11;92008.94;;;17.67;100.00
7660;BME280;3872;47.902;8.162;2023-06-22T03:04:38;92008.97;;;18.19;100.00
7660;BME280;3872;47.902;8.162;2023-06-22T03:07:05;92012.47;;;17.83;100.00
7660;BME280;3872;47.902;8.162;2023-06-22T03:09:32;92015.97;;;18.11;100.00
7660;BME280;3872;47.902;8.162;2023-06-22T03:11:58;92005.66;;;18.10;100.00
7660;BME280;3872;47.902;8.162;2023-06-22T03:14:34;92016.09;;;17.90;100.00
7660;BME280;3872;47.902;8.162;2023-06-22T03:17:02;92005.81;;;17.65;100.00
7660;BME280;3872;47.902;8.162;2023-06-22T03:19:29;92004.19;;;18.12;100.00
7660;BME280;3872;47.902;8.162;2023-06-22T03:21:56;92000.00;;;17.99;100.00
7660;BME280;3872;47.902;8.162;2023-06-22T03:24:24;92001.03;;;17.94;100.00
7660;BME280;3872;47.902;8.162;2023-06-22T03:26:54;91997.41;;;18.27;100.00
7660;BME280;3872;47.902;8.162;2023-06-22T03:29:21;92001.63;;;18.28;100.00
7660;BME280;3872;47.902;8.162;2023-06-22T03:31:50;92003.16;;;17.89;100.00
7660;BME280;3872;47.902;8.162;2023-06-22T03:34:17;91996.13;;;17.36;100.00
7660;BME280;3872;47.902;8.162;2023-06-22T03:36:43;92002.16;;;17.00;100.00
7660;BME280;3872;47.902;8.162;2023-06-22T03:39:11;92003.13;;;16.29;100.00
7660;BME280;3872;47.902;8.162;2023-06-22T03:41:40;91995.25;;;17.32;100.00
7660;BME280;3872;47.902;8.162;2023-06-22T03:44:06;91996.34;;;18.04;100.00
7660;BME280;3872;47.902;8.162;2023-06-22T03:46:35;91985.22;;;17.62;100.00
7660;BME280;3872;47.902;8.162;2023-06-22T03:49:03;91993.53;;;16.91;100.00
7660;BME280;3872;47.902;8.162;2023-06-22T03:51:32;91998.84;;;16.91;100.00
7660;BME280;3872;47.902;8.162;2023-06-22T03:53:58;91982.28;;;17.42;100.00
7660;BME280;3872;47.902;8.162;2023-06-22T03:56:25;91981.63;;;17.70;100.00
7660;BME280;3872;47.902;8.162;2023-06-22T03:58:51;91988.81;;;17.57;100.00
7660;BME280;3872;47.902;8.162;2023-06-22T04:01:18;91988.28;;;17.51;100.00
7660;BME280;3872;47.902;8.162;2023-06-22T04:03:45;91994.81;;;17.78;100.00
7660;BME280;3872;47.902;8.162;2023-06-22T04:06:15;91985.63;;;17.76;100.00
7660;BME280;3872;47.902;8.162;2023-06-22T04:08:42;91994.53;;;18.20;100.00
7660;BME280;3872;47.902;8.162;2023-06-22T04:11:08;91991.97;;;18.23;100.00
7660;BME280;3872;47.902;8.162;2023-06-22T04:13:35;91989.91;;;18.05;100.00
7660;BME280;3872;47.902;8.162;2023-06-22T04:16:01;92002.31;;;17.03;100.00
7660;BME280;3872;47.902;8.162;2023-06-22T04:18:28;91993.38;;;17.56;100.00
7660;BME280;3872;47.902;8.162;2023-06-22T04:20:54;91992.91;;;17.91;100.00
7660;BME280;3872;47.902;8.162;2023-06-22T04:23:22;91996.00;;;18.05;100.00
7660;BME280;3872;47.902;8.162;2023-06-22T04:25:48;91986.81;;;17.90;100.00
7660;BME280;3872;47.902;8.162;2023-06-22T04:28:15;91984.09;;;17.75;100.00
7660;BME280;3872;47.902;8.162;2023-06-22T04:30:42;91991.06;;;16.86;100.00
7660;BME280;3872;47.902;8.162;2023-06-22T04:33:13;91985.28;;;17.77;100.00
7660;BME280;3872;47.902;8.162;2023-06-22T04:35:39;91982.81;;;17.48;100.00
7660;BME280;3872;47.902;8.162;2023-06-22T04:38:06;91985.28;;;17.53;100.00
7660;BME280;3872;47.902;8.162;2023-06-22T04:40:34;91985.84;;;17.58;100.00
7660;BME280;3872;47.902;8.162;2023-06-22T04:43:01;91989.56;;;18.06;100.00
7660;BME280;3872;47.902;8.162;2023-06-22T04:45:29;91987.16;;;17.77;100.00
7660;BME280;3872;47.902;8.162;2023-06-22T04:47:55;91996.03;;;17.56;100.00
7660;BME280;3872;47.902;8.162;2023-06-22T04:50:22;91985.78;;;18.07;100.00
7660;BME280;3872;47.902;8.162;2023-06-22T04:52:49;91990.88;;;18.24;100.00
7660;BME280;3872;47.902;8.162;2023-06-22T04:55:16;91992.66;;;18.60;100.00
7660;BME280;3872;47.902;8.162;2023-06-22T04:57:45;91992.53;;;18.85;100.00
7660;BME280;3872;47.902;8.162;2023-06-22T05:00:14;91992.94;;;18.71;100.00
7660;BME280;3872;47.902;8.162;2023-06-22T05:02:43;91988.06;;;18.73;100.00
7660;BME280;3872;47.902;8.162;2023-06-22T05:05:10;91978.03;;;18.98;100.00
7660;BME280;3872;47.902;8.162;2023-06-22T05:07:39;91976.84;;;18.95;100.00
7660;BME280;3872;47.902;8.162;2023-06-22T05:10:08;91971.88;;;19.25;100.00
7660;BME280;3872;47.902;8.162;2023-06-22T05:12:35;91970.00;;;19.57;100.00
7660;BME280;3872;47.902;8.162;2023-06-22T05:15:03;91980.59;;;19.53;100.00
7660;BME280;3872;47.902;8.162;2023-06-22T05:17:30;91979.00;;;19.68;100.00
7660;BME280;3872;47.902;8.162;2023-06-22T05:19:56;91966.47;;;19.53;100.00
7660;BME280;3872;47.902;8.162;2023-06-22T05:22:23;91964.84;;;19.83;100.00
7660;BME280;3872;47.902;8.162;2023-06-22T05:24:49;91968.56;;;20.14;100.00
7660;BME280;3872;47.902;8.162;2023-06-22T05:27:16;91969.06;;;20.35;100.00
7660;BME280;3872;47.902;8.162;2023-06-22T05:29:42;91966.63;;;20.30;100.00
7660;BME280;3872;47.902;8.162;2023-06-22T05:32:10;91959.41;;;19.96;100.00
7660;BME280;3872;47.902;8.162;2023-06-22T05:34:37;91956.06;;;19.83;100.00
7660;BME280;3872;47.902;8.162;2023-06-22T05:37:04;91969.63;;;18.96;100.00
7660;BME280;3872;47.902;8.162;2023-06-22T05:39:31;91958.44;;;20.04;100.00
7660;BME280;3872;47.902;8.162;2023-06-22T05:41:58;91946.69;;;20.43;100.00
7660;BME280;3872;47.902;8.162;2023-06-22T05:44:24;91952.56;;;20.14;100.00
7660;BME280;3872;47.902;8.162;2023-06-22T05:46:51;91967.75;;;20.29;100.00
7660;BME280;3872;47.902;8.162;2023-06-22T05:49:19;91960.66;;;19.35;100.00
7660;BME280;3872;47.902;8.162;2023-06-22T05:51:47;91960.63;;;20.52;100.00
7660;BME280;3872;47.902;8.162;2023-06-22T05:54:13;91958.06;;;20.79;100.00
7660;BME280;3872;47.902;8.162;2023-06-22T05:56:43;91967.94;;;20.97;100.00
7660;BME280;3872;47.902;8.162;2023-06-22T05:59:09;91960.88;;;21.51;100.00
7660;BME280;3872;47.902;8.162;2023-06-22T06:01:36;91954.72;;;21.73;100.00
7660;BME280;3872;47.902;8.162;2023-06-22T06:04:03;91956.75;;;21.34;100.00
7660;BME280;3872;47.902;8.162;2023-06-22T06:06:31;91967.13;;;20.93;100.00
7660;BME280;3872;47.902;8.162;2023-06-22T06:09:00;91967.34;;;20.85;100.00
7660;BME280;3872;47.902;8.162;2023-06-22T06:11:26;91966.25;;;21.77;100.00
7660;BME280;3872;47.902;8.162;2023-06-22T06:13:53;91957.09;;;21.78;100.00
7660;BME280;3872;47.902;8.162;2023-06-22T06:16:19;91959.63;;;21.94;100.00
7660;BME280;3872;47.902;8.162;2023-06-22T06:18:46;91963.53;;;22.56;100.00
7660;BME280;3872;47.902;8.162;2023-06-22T06:21:13;91954.16;;;22.73;100.00
7660;BME280;3872;47.902;8.162;2023-06-22T06:23:41;91949.44;;;22.62;100.00
7660;BME280;3872;47.902;8.162;2023-06-22T06:26:08;91937.63;;;23.00;100.00
7660;BME280;3872;47.902;8.162;2023-06-22T06:28:35;91934.06;;;23.30;100.00
7660;BME280;3872;47.902;8.162;2023-06-22T06:31:02;91926.63;;;23.60;100.00
7660;BME280;3872;47.902;8.162;2023-06-22T06:33:32;91930.66;;;23.88;100.00
7660;BME280;3872;47.902;8.162;2023-06-22T06:35:58;91930.44;;;24.10;100.00
7660;BME280;3872;47.902;8.162;2023-06-22T06:38:27;91936.34;;;24.34;100.00
7660;BME280;3872;47.902;8.162;2023-06-22T06:40:55;91920.03;;;24.05;100.00
7660;BME280;3872;47.902;8.162;2023-06-22T06:43:21;91916.88;;;23.41;100.00
7660;BME280;3872;47.902;8.162;2023-06-22T06:45:49;91921.81;;;23.80;100.00
7660;BME280;3872;47.902;8.162;2023-06-22T06:48:15;91930.41;;;24.03;100.00
7660;BME280;3872;47.902;8.162;2023-06-22T06:50:43;91957.81;;;23.28;100.00
7660;BME280;3872;47.902;8.162;2023-06-22T06:53:09;91952.56;;;24.51;100.00
7660;BME280;3872;47.902;8.162;2023-06-22T06:55:36;91961.50;;;24.70;100.00
7660;BME280;3872;47.902;8.162;2023-06-22T06:58:04;91972.78;;;24.24;100.00
7660;BME280;3872;47.902;8.162;2023-06-22T07:00:32;91975.53;;;25.14;100.00
7660;BME280;3872;47.902;8.162;2023-06-22T07:03:01;91985.84;;;24.94;100.00
7660;BME280;3872;47.902;8.162;2023-06-22T07:05:27;91982.00;;;24.95;100.00
7660;BME280;3872;47.902;8.162;2023-06-22T07:07:54;91986.03;;;25.76;100.00
7660;BME280;3872;47.902;8.162;2023-06-22T07:10:21;91991.44;;;25.97;100.00
7660;BME280;3872;47.902;8.162;2023-06-22T07:12:47;92013.38;;;25.78;100.00
7660;BME280;3872;47.902;8.162;2023-06-22T07:15:15;92010.22;;;25.48;100.00
7660;BME280;3872;47.902;8.162;2023-06-22T07:17:41;92020.59;;;25.46;100.00
7660;BME280;3872;47.902;8.162;2023-06-22T07:20:09;92032.91;;;25.36;100.00
7660;BME280;3872;47.902;8.162;2023-06-22T07:22:37;92052.53;;;25.33;100.00
7660;BME280;3872;47.902;8.162;2023-06-22T07:25:04;92050.94;;;25.14;100.00
7660;BME280;3872;47.902;8.162;2023-06-22T07:27:34;92042.41;;;24.98;100.00
7660;BME280;3872;47.902;8.162;2023-06-22T07:30:03;92046.38;;;25.32;100.00
7660;BME280;3872;47.902;8.162;2023-06-22T07:32:32;92051.53;;;24.83;100.00
7660;BME280;3872;47.902;8.162;2023-06-22T07:34:58;92056.72;;;25.23;100.00
7660;BME280;3872;47.902;8.162;2023-06-22T07:37:25;92058.44;;;25.95;100.00
7660;BME280;3872;47.902;8.162;2023-06-22T07:39:52;92046.53;;;26.21;100.00
7660;BME280;3872;47.902;8.162;2023-06-22T07:42:24;92032.63;;;26.58;100.00
7660;BME280;3872;47.902;8.162;2023-06-22T07:44:50;92024.69;;;27.31;88.45
7660;BME280;3872;47.902;8.162;2023-06-22T07:47:17;92016.97;;;27.29;79.45
7660;BME280;3872;47.902;8.162;2023-06-22T07:49:45;92031.13;;;27.58;72.14
7660;BME280;3872;47.902;8.162;2023-06-22T07:52:12;92031.19;;;27.44;74.23
7660;BME280;3872;47.902;8.162;2023-06-22T07:54:38;92035.47;;;27.38;75.41
7660;BME280;3872;47.902;8.162;2023-06-22T07:57:05;92036.97;;;27.46;75.88
7660;BME280;3872;47.902;8.162;2023-06-22T07:59:32;92034.22;;;27.50;79.14
7660;BME280;3872;47.902;8.162;2023-06-22T08:01:58;92029.63;;;27.54;73.23
7660;BME280;3872;47.902;8.162;2023-06-22T08:04:25;92028.19;;;27.28;75.68
7660;BME280;3872;47.902;8.162;2023-06-22T08:06:53;92019.34;;;27.20;71.06
7660;BME280;3872;47.902;8.162;2023-06-22T08:09:20;92018.28;;;27.73;69.83
7660;BME280;3872;47.902;8.162;2023-06-22T08:11:47;92006.91;;;28.48;65.81
7660;BME280;3872;47.902;8.162;2023-06-22T08:14:14;92000.84;;;28.74;61.76
7660;BME280;3872;47.902;8.162;2023-06-22T08:16:41;91999.88;;;29.25;57.08
7660;BME280;3872;47.902;8.162;2023-06-22T08:19:07;91992.94;;;29.54;58.41
7660;BME280;3872;47.902;8.162;2023-06-22T08:21:34;91993.16;;;29.67;55.65
7660;BME280;3872;47.902;8.162;2023-06-22T08:24:02;91984.03;;;29.54;54.12
7660;BME280;3872;47.902;8.162;2023-06-22T08:26:29;91978.34;;;29.98;54.68
7660;BME280;3872;47.902;8.162;2023-06-22T08:28:55;91974.19;;;30.41;57.13
7660;BME280;3872;47.902;8.162;2023-06-22T08:31:22;91971.28;;;30.05;55.23
7660;BME280;3872;47.902;8.162;2023-06-22T08:33:48;91954.63;;;30.49;48.59
7660;BME280;3872;47.902;8.162;2023-06-22T08:36:15;91947.44;;;31.02;47.68
7660;BME280;3872;47.902;8.162;2023-06-22T08:38:41;91956.31;;;31.42;46.58
7660;BME280;3872;47.902;8.162;2023-06-22T08:41:09;91947.94;;;31.17;45.99
7660;BME280;3872;47.902;8.162;2023-06-22T08:43:36;91948.50;;;31.08;47.39
7660;BME280;3872;47.902;8.162;2023-06-22T08:46:02;91938.91;;;31.56;46.45
7660;BME280;3872;47.902;8.162;2023-06-22T08:48:29;91940.41;;;31.76;43.21
7660;BME280;3872;47.902;8.162;2023-06-22T08:50:56;91929.28;;;31.71;43.96
7660;BME280;3872;47.902;8.162;2023-06-22T08:53:23;91926.09;;;32.24;45.37
7660;BME280;3872;47.902;8.162;2023-06-22T08:55:49;91932.69;;;31.91;47.66
7660;BME280;3872;47.902;8.162;2023-06-22T08:58:18;91944.22;;;32.60;46.25
7660;BME280;3872;47.902;8.162;2023-06-22T09:00:45;91936.22;;;32.69;42.78
7660;BME280;3872;47.902;8.162;2023-06-22T09:03:12;91939.16;;;32.46;44.29
7660;BME280;3872;47.902;8.162;2023-06-22T09:05:38;91931.72;;;32.91;44.38
7660;BME280;3872;47.902;8.162;2023-06-22T09:08:05;91945.03;;;31.43;43.00
7660;BME280;3872;47.902;8.162;2023-06-22T09:10:31;91947.75;;;31.96;36.61
7660;BME280;3872;47.902;8.162;2023-06-22T09:12:58;91943.97;;;30.82;38.60
7660;BME280;3872;47.902;8.162;2023-06-22T09:15:25;91936.09;;;30.67;35.91
7660;BME280;3872;47.902;8.162;2023-06-22T09:17:52;91933.88;;;32.06;35.07
7660;BME280;3872;47.902;8.162;2023-06-22T09:20:19;91933.63;;;32.78;37.46
7660;BME280;3872;47.902;8.162;2023-06-22T09:22:46;91920.56;;;32.57;36.72
7660;BME280;3872;47.902;8.162;2023-06-22T09:25:13;91924.97;;;31.73;32.79
7660;BME280;3872;47.902;8.162;2023-06-22T09:27:39;91922.44;;;32.60;34.22
7660;BME280;3872;47.902;8.162;2023-06-22T09:30:07;91930.25;;;32.29;29.41
7660;BME280;3872;47.902;8.162;2023-06-22T09:32:35;91915.00;;;32.32;28.36
7660;BME280;3872;47.902;8.162;2023-06-22T09:35:04;91916.56;;;33.32;32.27
7660;BME280;3872;47.902;8.162;2023-06-22T09:37:32;91908.97;;;32.69;30.28
7660;BME280;3872;47.902;8.162;2023-06-22T09:39:58;91897.94;;;32.89;27.80
7660;BME280;3872;47.902;8.162;2023-06-22T09:42:25;91895.00;;;32.38;30.75
7660;BME280;3872;47.902;8.162;2023-06-22T09:44:51;91887.28;;;32.49;28.12
7660;BME280;3872;47.902;8.162;2023-06-22T09:47:18;91893.28;;;31.47;28.23
7660;BME280;3872;47.902;8.162;2023-06-22T09:49:46;91899.38;;;32.48;28.58
7660;BME280;3872;47.902;8.162;2023-06-22T09:52:12;91899.19;;;32.84;27.41
7660;BME280;3872;47.902;8.162;2023-06-22T09:54:39;91891.09;;;32.39;27.35
7660;BME280;3872;47.902;8.162;2023-06-22T09:57:06;91893.34;;;32.98;26.76
7660;BME280;3872;47.902;8.162;2023-06-22T09:59:32;91889.41;;;32.58;26.26
7660;BME280;3872;47.902;8.162;2023-06-22T10:01:59;91896.28;;;32.62;27.73
7660;BME280;3872;47.902;8.162;2023-06-22T10:04:25;91903.44;;;32.56;30.28
7660;BME280;3872;47.902;8.162;2023-06-22T10:06:53;91892.50;;;33.14;27.28
7660;BME280;3872;47.902;8.162;2023-06-22T10:09:20;91896.84;;;33.78;28.75
7660;BME280;3872;47.902;8.162;2023-06-22T10:11:46;91901.66;;;33.74;27.65
7660;BME280;3872;47.902;8.162;2023-06-22T10:14:13;91900.16;;;32.78;29.24
7660;BME280;3872;47.902;8.162;2023-06-22T10:16:40;91903.09;;;31.93;29.12
7660;BME280;3872;47.902;8.162;2023-06-22T10:19:06;91893.06;;;33.09;29.28
7660;BME280;3872;47.902;8.162;2023-06-22T10:21:33;91896.81;;;32.57;28.95
7660;BME280;3872;47.902;8.162;2023-06-22T10:24:01;91895.66;;;33.00;30.95
7660;BME280;3872;47.902;8.162;2023-06-22T10:26:31;91908.31;;;33.07;28.47
7660;BME280;3872;47.902;8.162;2023-06-22T10:28:58;91905.16;;;31.89;32.60
7660;BME280;3872;47.902;8.162;2023-06-22T10:31:24;91912.13;;;32.22;28.06
7660;BME280;3872;47.902;8.162;2023-06-22T10:33:51;91913.13;;;32.12;29.20
7660;BME280;3872;47.902;8.162;2023-06-22T10:36:18;91898.88;;;32.53;27.83
7660;BME280;3872;47.902;8.162;2023-06-22T10:38:44;91906.06;;;32.31;27.30
7660;BME280;3872;47.902;8.162;2023-06-22T10:41:13;91890.59;;;31.79;26.53
7660;BME280;3872;47.902;8.162;2023-06-22T10:43:40;91907.28;;;31.65;29.03
7660;BME280;3872;47.902;8.162;2023-06-22T10:46:07;91918.41;;;31.35;28.99
7660;BME280;3872;47.902;8.162;2023-06-22T10:48:33;91911.63;;;31.95;29.48
7660;BME280;3872;47.902;8.162;2023-06-22T10:51:00;91906.00;;;31.34;28.52
7660;BME280;3872;47.902;8.162;2023-06-22T10:53:26;91906.69;;;32.51;27.89
7660;BME280;3872;47.902;8.162;2023-06-22T10:55:53;91921.13;;;31.87;27.84
7660;BME280;3872;47.902;8.162;2023-06-22T10:58:21;91922.69;;;32.49;26.65
7660;BME280;3872;47.902;8.162;2023-06-22T11:00:48;91939.09;;;32.62;27.34
7660;BME280;3872;47.902;8.162;2023-06-22T11:03:14;91946.44;;;32.65;27.72
7660;BME280;3872;47.902;8.162;2023-06-22T11:05:41;91963.47;;;32.98;27.98
7660;BME280;3872;47.902;8.162;2023-06-22T11:08:07;91971.91;;;32.26;29.22
7660;BME280;3872;47.902;8.162;2023-06-22T11:10:34;91960.22;;;31.41;30.03
7660;BME280;3872;47.902;8.162;2023-06-22T11:13:00;91965.22;;;31.06;30.59
7660;BME280;3872;47.902;8.162;2023-06-22T11:15:30;91969.44;;;30.68;32.96
7660;BME280;3872;47.902;8.162;2023-06-22T11:17:57;91971.06;;;31.25;30.83
7660;BME280;3872;47.902;8.162;2023-06-22T11:20:23;91973.53;;;31.19;31.43
7660;BME280;3872;47.902;8.162;2023-06-22T11:22:50;91975.63;;;31.11;32.25
7660;BME280;3872;47.902;8.162;2023-06-22T11:25:16;91997.13;;;31.02;30.87
7660;BME280;3872;47.902;8.162;2023-06-22T11:27:43;91996.28;;;30.86;31.39
7660;BME280;3872;47.902;8.162;2023-06-22T11:30:10;91996.22;;;31.68;32.45
7660;BME280;3872;47.902;8.162;2023-06-22T11:32:38;91991.78;;;31.19;32.11
7660;BME280;3872;47.902;8.162;2023-06-22T11:35:04;91995.88;;;30.64;31.42
7660;BME280;3872;47.902;8.162;2023-06-22T11:37:31;92007.63;;;30.34;32.74
7660;BME280;3872;47.902;8.162;2023-06-22T11:39:58;92004.25;;;31.16;31.67
7660;BME280;3872;47.902;8.162;2023-06-22T11:42:24;92012.53;;;31.29;29.43
7660;BME280;3872;47.902;8.162;2023-06-22T11:44:51;92033.91;;;30.41;31.14
7660;BME280;3872;47.902;8.162;2023-06-22T11:47:18;92013.41;;;30.83;30.91
7660;BME280;3872;47.902;8.162;2023-06-22T11:49:45;92026.06;;;30.69;30.50
7660;BME280;3872;47.902;8.162;2023-06-22T11:52:12;92017.31;;;30.82;32.32
7660;BME280;3872;47.902;8.162;2023-06-22T11:54:39;92009.88;;;30.62;31.75
7660;BME280;3872;47.902;8.162;2023-06-22T11:57:05;91998.19;;;30.42;30.88
7660;BME280;3872;47.902;8.162;2023-06-22T11:59:32;91984.34;;;30.99;30.88
7660;BME280;3872;47.902;8.162;2023-06-22T12:01:58;91975.81;;;31.40;30.92
7660;BME280;3872;47.902;8.162;2023-06-22T12:04:25;91977.41;;;30.09;31.14
7660;BME280;3872;47.902;8.162;2023-06-22T12:06:53;91965.72;;;30.35;31.13
7660;BME280;3872;47.902;8.162;2023-06-22T12:09:19;91957.47;;;30.65;31.58
7660;BME280;3872;47.902;8.162;2023-06-22T12:11:46;91965.44;;;30.53;31.52
7660;BME280;3872;47.902;8.162;2023-06-22T12:14:12;91972.09;;;30.48;31.70
7660;BME280;3872;47.902;8.162;2023-06-22T12:16:39;91975.53;;;30.29;29.97
7660;BME280;3872;47.902;8.162;2023-06-22T12:19:05;91977.28;;;29.66;32.86
7660;BME280;3872;47.902;8.162;2023-06-22T12:21:32;91991.81;;;29.52;32.58
7660;BME280;3872;47.902;8.162;2023-06-22T12:24:00;91991.53;;;28.78;34.04
7660;BME280;3872;47.902;8.162;2023-06-22T12:26:26;91996.59;;;29.10;33.67
7660;BME280;3872;47.902;8.162;2023-06-22T12:28:53;91983.66;;;29.79;32.76
7660;BME280;3872;47.902;8.162;2023-06-22T12:31:19;91990.81;;;29.39;33.70
7660;BME280;3872;47.902;8.162;2023-06-22T12:33:46;91991.66;;;29.89;33.80
7660;BME280;3872;47.902;8.162;2023-06-22T12:36:12;91989.81;;;30.56;33.05
7660;BME280;3872;47.902;8.162;2023-06-22T12:38:39;91995.66;;;30.31;33.24
7660;BME280;3872;47.902;8.162;2023-06-22T12:41:07;91995.63;;;29.24;35.20
7660;BME280;3872;47.902;8.162;2023-06-22T12:43:33;91999.53;;;29.53;33.24
7660;BME280;3872;47.902;8.162;2023-06-22T12:46:00;92001.44;;;28.51;35.63
7660;BME280;3872;47.902;8.162;2023-06-22T12:48:27;91990.50;;;28.24;36.28
7660;BME280;3872;47.902;8.162;2023-06-22T12:50:53;92006.44;;;28.08;37.60
7660;BME280;3872;47.902;8.162;2023-06-22T12:53:20;92001.41;;;28.92;37.04
7660;BME280;3872;47.902;8.162;2023-06-22T12:55:47;91995.34;;;27.95;38.29
7660;BME280;3872;47.902;8.162;2023-06-22T12:58:16;91987.75;;;28.65;37.86
7660;BME280;3872;47.902;8.162;2023-06-22T13:00:43;91960.63;;;29.37;36.50
7660;BME280;3872;47.902;8.162;2023-06-22T13:03:09;91963.75;;;29.05;36.95
7660;BME280;3872;47.902;8.162;2023-06-22T13:05:36;91958.84;;;28.93;37.93
7660;BME280;3872;47.902;8.162;2023-06-22T13:08:03;91967.50;;;28.84;38.82
7660;BME280;3872;47.902;8.162;2023-06-22T13:10:30;91957.44;;;28.81;38.37
7660;BME280;3872;47.902;8.162;2023-06-22T13:12:56;91960.41;;;28.56;37.53
7660;BME280;3872;47.902;8.162;2023-06-22T13:15:27;91953.53;;;28.86;36.74